Ron Hunter — WDH4137 — position and weather

sailwx.info

Track history (hours):
 
Tides and Currents Weather Stations Pressure Air Temp Water Temp Dewpoint Dewpoint Depression Visibility Wind Speed Wind Dir Waves Ship Positions

Ron Hunter

Owner: HF Marine, LLC, Nashville, TN. More information available from US FCC via Universal Licensing System and Coast Guard Vessel Documentation Center.

Last reported at 2017-Nov-12 14:58 UTC. Time now 2017-Nov-22 11:02 UTC.
Position N 32°47' W 091°10'.
Warning: this ship's position is 9 days out of date.

Length 48 m; draft 3 m.

Type: Towing. MMSI: 367614550.

Date/timePositionNaut miles runAvg speedWind from/ knotsBaromVisibWave heightAir tempDewpointWater temp
2017-Nov-12 14:58N 32°47' W 091°10'1 2.9
2017-Nov-12 14:28N 32°46' W 091°09'6 1.1
2017-Nov-12 09:27N 32°40' W 091°08'2 3.2
2017-Nov-12 08:51N 32°39' W 091°09'1 3.0
2017-Nov-12 08:30N 32°38' W 091°09'0 0.6
2017-Nov-12 08:01N 32°37' W 091°09'0 0.0
2017-Nov-12 07:30N 32°37' W 091°09'0 0.1
2017-Nov-12 07:00N 32°37' W 091°09'2 3.1
2017-Nov-12 06:30N 32°36' W 091°08'2 3.6
2017-Nov-12 06:00N 32°35' W 091°07'2 3.4
2017-Nov-12 05:30N 32°33' W 091°06'2 1.7
2017-Nov-12 04:10N 32°31' W 091°06'1 4.1
2017-Nov-12 04:00N 32°30' W 091°07'2 4.0
2017-Nov-12 03:31N 32°28' W 091°07'2 3.6
2017-Nov-12 03:00N 32°27' W 091°05'2 3.8
2017-Nov-12 02:31N 32°26' W 091°03'2 3.8
2017-Nov-12 02:01N 32°26' W 091°01'2 3.3
2017-Nov-12 01:31N 32°25' W 090°59'1 2.3
2017-Nov-12 01:00N 32°23' W 090°60'1 2.5
2017-Nov-12 00:31N 32°22' W 091°00'2 3.0
2017-Nov-12 00:00N 32°21' W 090°59'2 3.9
2017-Nov-11 23:30N 32°21' W 090°57'2 3.6
2017-Nov-11 23:01N 32°21' W 090°55'2 3.5
2017-Nov-11 22:30N 32°19' W 090°54'1 1.9
2017-Nov-11 22:01N 32°18' W 090°55'0 0.0
2017-Nov-11 21:30N 32°18' W 090°55'0 0.0
2017-Nov-11 21:00N 32°18' W 090°55'0 0.0
2017-Nov-11 20:30N 32°18' W 090°55'0 0.0
2017-Nov-11 20:01N 32°18' W 090°55'0 0.6
2017-Nov-11 19:31N 32°18' W 090°55'2 4.1
2017-Nov-11 19:00N 32°17' W 090°57'2 4.0
2017-Nov-11 18:30N 32°15' W 090°59'2 3.8
2017-Nov-11 18:00N 32°13' W 090°59'2 4.1
2017-Nov-11 17:30N 32°11' W 090°60'2 3.8
2017-Nov-11 17:01N 32°09' W 091°00'2 4.0
2017-Nov-11 16:30N 32°07' W 091°01'2 3.3
2017-Nov-11 16:01N 32°07' W 091°03'2 3.4
2017-Nov-11 15:22N 32°08' W 091°05'1 3.6
2017-Nov-11 15:00N 32°07' W 091°07'3 2.0
2017-Nov-11 13:31N 32°05' W 091°04'0 0.7
2017-Nov-11 13:28N 32°05' W 091°04'2 2.7
2017-Nov-11 12:51N 32°04' W 091°03'1 3.9
2017-Nov-11 12:31N 32°02' W 091°04'1 1.7
2017-Nov-11 12:00N 32°02' W 091°04'1 2.5
2017-Nov-11 11:31N 32°00' W 091°05'5 3.8
2017-Nov-11 10:06N 31°58' W 091°11'1 3.9
2017-Nov-11 09:52N 31°58' W 091°11'  
2017-Nov-06 02:27N 32°04' W 091°04'3 7.5
2017-Nov-06 02:00N 32°07' W 091°06'1 2.7
2017-Nov-06 01:30N 32°08' W 091°06'4 7.3
2017-Nov-06 01:01N 32°07' W 091°02'4 7.4
2017-Nov-06 00:31N 32°11' W 090°60'4 8.0
2017-Nov-06 00:00N 32°15' W 090°59'4 7.7
2017-Nov-05 23:30N 32°17' W 090°56'3 6.5
2017-Nov-05 23:00N 32°20' W 090°54'4 7.6
2017-Nov-05 22:30N 32°21' W 090°59'3 6.4
2017-Nov-05 22:01N 32°24' W 090°59'4 7.4
2017-Nov-05 21:30N 32°26' W 091°03'4 7.7
2017-Nov-05 21:01N 32°28' W 091°07'4 7.6
2017-Nov-05 20:30N 32°32' W 091°06'4 7.5
2017-Nov-05 20:01N 32°35' W 091°08'  
Track history (hours):
 
Tides and Currents Weather Stations Pressure Air Temp Water Temp Dewpoint Dewpoint Depression Visibility Wind Speed Wind Dir Waves Ship Positions

Ron Hunter

Owner: HF Marine, LLC, Nashville, TN. More information available from US FCC via Universal Licensing System and Coast Guard Vessel Documentation Center.

Last reported at 2017-Nov-12 14:58 UTC. Time now 2017-Nov-22 11:02 UTC.
Position N 32°47' W 091°10'.
Warning: this ship's position is 9 days out of date.

Length 48 m; draft 3 m.

Type: Towing. MMSI: 367614550.

Date/timePositionNaut miles runAvg speedWind from/ knotsBaromVisibWave heightAir tempDewpointWater temp
2017-Nov-12 14:58N 32°47' W 091°10'1 2.9
2017-Nov-12 14:28N 32°46' W 091°09'6 1.1
2017-Nov-12 09:27N 32°40' W 091°08'2 3.2
2017-Nov-12 08:51N 32°39' W 091°09'1 3.0
2017-Nov-12 08:30N 32°38' W 091°09'0 0.6
2017-Nov-12 08:01N 32°37' W 091°09'0 0.0
2017-Nov-12 07:30N 32°37' W 091°09'0 0.1
2017-Nov-12 07:00N 32°37' W 091°09'2 3.1
2017-Nov-12 06:30N 32°36' W 091°08'2 3.6
2017-Nov-12 06:00N 32°35' W 091°07'2 3.4
2017-Nov-12 05:30N 32°33' W 091°06'2 1.7
2017-Nov-12 04:10N 32°31' W 091°06'1 4.1
2017-Nov-12 04:00N 32°30' W 091°07'2 4.0
2017-Nov-12 03:31N 32°28' W 091°07'2 3.6
2017-Nov-12 03:00N 32°27' W 091°05'2 3.8
2017-Nov-12 02:31N 32°26' W 091°03'2 3.8
2017-Nov-12 02:01N 32°26' W 091°01'2 3.3
2017-Nov-12 01:31N 32°25' W 090°59'1 2.3
2017-Nov-12 01:00N 32°23' W 090°60'1 2.5
2017-Nov-12 00:31N 32°22' W 091°00'2 3.0
2017-Nov-12 00:00N 32°21' W 090°59'2 3.9
2017-Nov-11 23:30N 32°21' W 090°57'2 3.6
2017-Nov-11 23:01N 32°21' W 090°55'2 3.5
2017-Nov-11 22:30N 32°19' W 090°54'1 1.9
2017-Nov-11 22:01N 32°18' W 090°55'0 0.0
2017-Nov-11 21:30N 32°18' W 090°55'0 0.0
2017-Nov-11 21:00N 32°18' W 090°55'0 0.0
2017-Nov-11 20:30N 32°18' W 090°55'0 0.0
2017-Nov-11 20:01N 32°18' W 090°55'0 0.6
2017-Nov-11 19:31N 32°18' W 090°55'2 4.1
2017-Nov-11 19:00N 32°17' W 090°57'2 4.0
2017-Nov-11 18:30N 32°15' W 090°59'2 3.8
2017-Nov-11 18:00N 32°13' W 090°59'2 4.1
2017-Nov-11 17:30N 32°11' W 090°60'2 3.8
2017-Nov-11 17:01N 32°09' W 091°00'2 4.0
2017-Nov-11 16:30N 32°07' W 091°01'2 3.3
2017-Nov-11 16:01N 32°07' W 091°03'2 3.4
2017-Nov-11 15:22N 32°08' W 091°05'1 3.6
2017-Nov-11 15:00N 32°07' W 091°07'3 2.0
2017-Nov-11 13:31N 32°05' W 091°04'0 0.7
2017-Nov-11 13:28N 32°05' W 091°04'2 2.7
2017-Nov-11 12:51N 32°04' W 091°03'1 3.9
2017-Nov-11 12:31N 32°02' W 091°04'1 1.7
2017-Nov-11 12:00N 32°02' W 091°04'1 2.5
2017-Nov-11 11:31N 32°00' W 091°05'5 3.8
2017-Nov-11 10:06N 31°58' W 091°11'1 3.9
2017-Nov-11 09:52N 31°58' W 091°11'  
2017-Nov-06 02:27N 32°04' W 091°04'3 7.5
2017-Nov-06 02:00N 32°07' W 091°06'1 2.7
2017-Nov-06 01:30N 32°08' W 091°06'4 7.3
2017-Nov-06 01:01N 32°07' W 091°02'4 7.4
2017-Nov-06 00:31N 32°11' W 090°60'4 8.0
2017-Nov-06 00:00N 32°15' W 090°59'4 7.7
2017-Nov-05 23:30N 32°17' W 090°56'3 6.5
2017-Nov-05 23:00N 32°20' W 090°54'4 7.6
2017-Nov-05 22:30N 32°21' W 090°59'3 6.4
2017-Nov-05 22:01N 32°24' W 090°59'4 7.4
2017-Nov-05 21:30N 32°26' W 091°03'4 7.7
2017-Nov-05 21:01N 32°28' W 091°07'4 7.6
2017-Nov-05 20:30N 32°32' W 091°06'4 7.5
2017-Nov-05 20:01N 32°35' W 091°08'  

Dump ship's entire track history